createdAt,value
2018-09-04T00:01:25.508Z,17.18
2018-09-04T00:04:00.231Z,17.22
2018-09-04T00:06:34.983Z,17.21
2018-09-04T00:09:09.693Z,17.20
2018-09-04T00:11:44.183Z,17.16
2018-09-04T00:14:19.265Z,17.16
2018-09-04T00:16:53.884Z,17.17
2018-09-04T00:19:28.436Z,17.15
2018-09-04T00:22:02.931Z,17.13
2018-09-04T00:24:37.977Z,17.16
2018-09-04T00:27:13.086Z,17.15
2018-09-04T00:29:47.512Z,17.16
2018-09-04T00:32:22.175Z,17.17
2018-09-04T00:34:56.693Z,17.14
2018-09-04T00:37:31.623Z,17.09
2018-09-04T00:40:06.591Z,17.01
2018-09-04T00:42:40.923Z,16.99
2018-09-04T00:45:15.600Z,17.02
2018-09-04T00:47:50.067Z,17.00
2018-09-04T00:50:25.392Z,17.02
2018-09-04T00:52:59.831Z,16.99
2018-09-04T00:55:34.458Z,16.93
2018-09-04T00:58:09.656Z,16.95
2018-09-04T01:00:44.608Z,16.92
2018-09-04T01:03:19.251Z,16.94
2018-09-04T01:05:54.009Z,16.96
2018-09-04T01:08:28.492Z,16.87
2018-09-04T01:11:02.751Z,16.86
2018-09-04T01:13:43.944Z,16.82
2018-09-04T01:16:18.803Z,16.78
2018-09-04T01:18:53.358Z,16.78
2018-09-04T01:21:27.892Z,16.73
2018-09-04T01:24:02.592Z,16.78
2018-09-04T01:26:36.943Z,16.78
2018-09-04T01:29:11.372Z,16.68
2018-09-04T01:31:45.843Z,16.65
2018-09-04T01:34:20.659Z,16.63
2018-09-04T01:36:55.097Z,16.58
2018-09-04T01:39:29.439Z,16.61
2018-09-04T01:42:04.713Z,16.66
2018-09-04T01:44:39.546Z,16.61
2018-09-04T01:47:14.218Z,16.58
2018-09-04T01:49:48.611Z,16.55
2018-09-04T01:52:23.167Z,16.56
2018-09-04T01:54:57.721Z,16.50
2018-09-04T01:57:32.465Z,16.54
2018-09-04T02:00:08.122Z,16.50
2018-09-04T02:02:42.632Z,16.52
2018-09-04T02:05:17.704Z,16.52
2018-09-04T02:07:52.101Z,16.47
2018-09-04T02:10:26.450Z,16.50
2018-09-04T02:13:00.884Z,16.50
2018-09-04T02:15:35.320Z,16.58
2018-09-04T02:18:10.284Z,16.43
2018-09-04T02:20:45.077Z,16.49
2018-09-04T02:23:19.755Z,16.47
2018-09-04T02:25:54.060Z,16.55
2018-09-04T02:28:28.727Z,16.40
2018-09-04T02:31:03.239Z,16.32
2018-09-04T02:33:37.527Z,16.32
2018-09-04T02:36:12.286Z,16.41
2018-09-04T02:38:47.200Z,16.33
2018-09-04T02:41:21.911Z,16.38
2018-09-04T02:43:56.908Z,16.39
2018-09-04T02:46:31.196Z,16.33
2018-09-04T02:49:06.746Z,16.38
2018-09-04T02:51:41.229Z,16.32
2018-09-04T02:54:15.795Z,16.31
2018-09-04T02:56:50.782Z,16.28
2018-09-04T02:59:25.231Z,16.20
2018-09-04T03:01:59.607Z,16.20
2018-09-04T03:04:33.915Z,16.23
2018-09-04T03:07:08.340Z,16.11
2018-09-04T03:09:42.632Z,16.04
2018-09-04T03:12:17.025Z,16.09
2018-09-04T03:14:51.569Z,16.11
2018-09-04T03:17:26.120Z,16.24
2018-09-04T03:20:00.573Z,16.11
2018-09-04T03:22:35.040Z,16.08
2018-09-04T03:25:09.812Z,15.97
2018-09-04T03:27:44.388Z,15.97
2018-09-04T03:30:18.803Z,15.99
2018-09-04T03:32:53.479Z,16.04
2018-09-04T03:35:28.780Z,16.14
2018-09-04T03:38:03.101Z,16.18
2018-09-04T03:40:37.598Z,16.18
2018-09-04T03:43:11.998Z,16.23
2018-09-04T03:45:46.352Z,16.19
2018-09-04T03:48:20.803Z,16.18
2018-09-04T03:50:55.404Z,16.20
2018-09-04T03:53:29.815Z,16.23
2018-09-04T03:56:04.418Z,16.21
2018-09-04T03:58:39.528Z,16.07
2018-09-04T04:01:14.502Z,16.07
2018-09-04T04:03:49.089Z,16.04
2018-09-04T04:06:23.906Z,16.06
2018-09-04T04:08:58.396Z,16.07
2018-09-04T04:11:32.876Z,16.05
2018-09-04T04:14:08.400Z,15.98
2018-09-04T04:16:42.783Z,15.95
2018-09-04T04:19:17.087Z,15.90
2018-09-04T04:21:51.780Z,15.86
2018-09-04T04:24:26.409Z,15.87
2018-09-04T04:27:00.929Z,15.88
2018-09-04T04:29:35.384Z,15.92
2018-09-04T04:32:09.813Z,15.91
2018-09-04T04:34:44.341Z,15.94
2018-09-04T04:37:18.704Z,15.81
2018-09-04T04:39:53.181Z,15.84
2018-09-04T04:42:27.757Z,15.74
2018-09-04T04:45:02.940Z,15.67
2018-09-04T04:47:43.004Z,15.65
2018-09-04T04:50:18.617Z,15.66
2018-09-04T04:52:53.511Z,15.73
2018-09-04T04:55:28.112Z,15.78
2018-09-04T04:58:02.915Z,15.68
2018-09-04T05:00:37.324Z,15.66
2018-09-04T05:03:11.791Z,15.70
2018-09-04T05:05:46.489Z,15.69
2018-09-04T05:08:21.168Z,15.74
2018-09-04T05:10:55.559Z,15.63
2018-09-04T05:13:30.348Z,15.72
2018-09-04T05:16:05.516Z,15.75
2018-09-04T05:18:39.880Z,15.72
2018-09-04T05:21:14.444Z,15.61
2018-09-04T05:23:49.120Z,15.66
2018-09-04T05:26:23.576Z,15.67
2018-09-04T05:28:58.250Z,15.65
2018-09-04T05:31:37.491Z,15.55
2018-09-04T05:34:12.164Z,15.59
2018-09-04T05:36:46.886Z,15.52
2018-09-04T05:39:21.749Z,15.55
2018-09-04T05:42:00.834Z,15.55
2018-09-04T05:44:35.440Z,15.54
2018-09-04T05:47:10.605Z,15.61
2018-09-04T05:49:45.068Z,15.60
2018-09-04T05:52:19.559Z,15.57
2018-09-04T05:54:54.456Z,15.62
2018-09-04T05:57:29.161Z,15.64
2018-09-04T06:00:07.263Z,15.62
2018-09-04T06:02:42.122Z,15.59
2018-09-04T06:05:16.459Z,15.65
2018-09-04T06:07:51.220Z,15.63
2018-09-04T06:10:25.951Z,15.60
2018-09-04T06:13:00.324Z,15.49
2018-09-04T06:15:35.429Z,15.56
2018-09-04T06:18:09.950Z,15.60
2018-09-04T06:20:44.815Z,15.57
2018-09-04T06:23:19.260Z,15.61
2018-09-04T06:25:53.672Z,15.75
2018-09-04T06:28:28.483Z,15.73
2018-09-04T06:31:04.581Z,15.71
2018-09-04T06:33:39.445Z,15.70
2018-09-04T06:36:14.127Z,15.69
2018-09-04T06:38:49.185Z,15.72
2018-09-04T06:41:23.472Z,15.80
2018-09-04T06:43:57.908Z,15.84
2018-09-04T06:46:32.501Z,15.86
2018-09-04T06:49:07.128Z,15.93
2018-09-04T06:51:42.035Z,15.88
2018-09-04T06:54:17.990Z,15.93
2018-09-04T06:56:52.411Z,15.94
2018-09-04T06:59:27.091Z,15.91
2018-09-04T07:02:01.410Z,15.81
2018-09-04T07:04:35.715Z,15.82
2018-09-04T07:07:10.082Z,15.84
2018-09-04T07:09:44.644Z,15.85
2018-09-04T07:12:19.284Z,15.86
2018-09-04T07:14:53.771Z,15.80
2018-09-04T07:17:28.172Z,15.86
2018-09-04T07:20:03.278Z,15.87
2018-09-04T07:22:37.978Z,15.87
2018-09-04T07:25:12.720Z,15.96
2018-09-04T07:27:47.131Z,16.00
2018-09-04T07:30:22.043Z,15.96
2018-09-04T07:32:56.331Z,16.02
2018-09-04T07:35:30.695Z,16.04
2018-09-04T07:38:05.528Z,16.10
2018-09-04T07:40:40.296Z,16.21
2018-09-04T07:43:14.622Z,16.26
2018-09-04T07:45:48.901Z,16.37
2018-09-04T07:48:23.246Z,16.33
2018-09-04T07:50:57.788Z,16.30
2018-09-04T07:53:32.348Z,16.22
2018-09-04T07:56:06.784Z,16.30
2018-09-04T07:58:41.229Z,16.41
2018-09-04T08:01:15.990Z,16.51
2018-09-04T08:03:50.483Z,16.49
2018-09-04T08:06:24.884Z,16.58
2018-09-04T08:08:59.346Z,16.51
2018-09-04T08:11:34.430Z,16.49
2018-09-04T08:14:09.237Z,16.47
2018-09-04T08:16:43.955Z,16.44
2018-09-04T08:19:18.496Z,16.40
2018-09-04T08:21:52.952Z,16.40
2018-09-04T08:24:27.342Z,16.33
2018-09-04T08:27:01.735Z,16.32
2018-09-04T08:29:36.548Z,16.33
2018-09-04T08:32:10.892Z,16.43
2018-09-04T08:34:45.311Z,16.50
2018-09-04T08:37:19.679Z,16.64
2018-09-04T08:39:54.400Z,16.67
2018-09-04T08:42:28.988Z,16.72
2018-09-04T08:45:03.295Z,16.73
2018-09-04T08:47:38.725Z,16.66
2018-09-04T08:50:13.143Z,16.63
2018-09-04T08:52:47.985Z,16.65
2018-09-04T08:55:22.632Z,16.65
2018-09-04T08:57:57.724Z,16.69
2018-09-04T09:00:32.475Z,16.83
2018-09-04T09:03:07.696Z,16.81
2018-09-04T09:05:42.199Z,16.86
2018-09-04T09:08:16.960Z,16.87
2018-09-04T09:10:51.743Z,16.92
2018-09-04T09:13:26.487Z,16.97
2018-09-04T09:16:01.652Z,16.88
2018-09-04T09:18:35.990Z,16.85
2018-09-04T09:21:10.446Z,16.83
2018-09-04T09:23:44.903Z,16.82
2018-09-04T09:26:19.261Z,16.88
2018-09-04T09:28:53.961Z,16.82
2018-09-04T09:31:28.564Z,16.81
2018-09-04T09:34:03.001Z,16.80
2018-09-04T09:36:37.447Z,16.84
2018-09-04T09:39:12.161Z,16.88
2018-09-04T09:41:46.632Z,16.95
2018-09-04T09:44:21.304Z,16.89
2018-09-04T09:47:01.126Z,16.91
2018-09-04T09:49:35.479Z,16.84
2018-09-04T09:52:10.670Z,16.83
2018-09-04T09:54:45.461Z,16.83
2018-09-04T09:57:19.847Z,16.94
2018-09-04T09:59:54.280Z,16.94
2018-09-04T10:02:34.383Z,16.98
2018-09-04T10:05:09.216Z,17.07
2018-09-04T10:07:44.216Z,17.06
2018-09-04T10:10:18.764Z,17.02
2018-09-04T10:12:54.156Z,16.97
2018-09-04T10:15:28.872Z,17.00
2018-09-04T10:18:05.304Z,16.85
2018-09-04T10:20:39.700Z,16.77
2018-09-04T10:23:14.599Z,16.77
2018-09-04T10:25:49.724Z,16.75
2018-09-04T10:28:24.579Z,16.71
2018-09-04T10:30:59.292Z,16.79
2018-09-04T10:33:33.624Z,16.93
2018-09-04T10:36:08.179Z,16.77
2018-09-04T10:38:42.861Z,16.85
2018-09-04T10:41:17.460Z,16.78
2018-09-04T10:43:51.899Z,16.85
2018-09-04T10:46:26.687Z,16.94
2018-09-04T10:49:01.019Z,16.98
2018-09-04T10:51:35.926Z,16.88
2018-09-04T10:54:10.376Z,16.90
2018-09-04T10:56:50.120Z,16.90
2018-09-04T10:59:24.983Z,16.95
2018-09-04T11:01:59.636Z,17.00
2018-09-04T11:04:35.157Z,16.92
2018-09-04T11:07:09.588Z,16.87
2018-09-04T11:09:44.088Z,16.85
2018-09-04T11:12:18.778Z,16.91
2018-09-04T11:14:53.219Z,16.78
2018-09-04T11:17:27.875Z,16.89
2018-09-04T11:20:02.844Z,16.92
2018-09-04T11:22:37.315Z,16.96
2018-09-04T11:25:11.723Z,16.94
2018-09-04T11:27:46.399Z,17.08
2018-09-04T11:30:20.916Z,17.05
2018-09-04T11:32:55.436Z,17.06
2018-09-04T11:35:29.857Z,17.09
2018-09-04T11:38:04.304Z,17.24
2018-09-04T11:40:39.106Z,17.33
2018-09-04T11:43:14.395Z,17.33
2018-09-04T11:45:48.679Z,17.39
2018-09-04T11:48:23.091Z,17.43
2018-09-04T11:50:57.943Z,17.47
2018-09-04T11:53:33.040Z,17.51
2018-09-04T11:56:07.303Z,17.50
2018-09-04T11:58:46.737Z,17.49
2018-09-04T12:01:24.976Z,17.56
2018-09-04T12:03:59.499Z,17.60
2018-09-04T12:06:33.846Z,17.56
2018-09-04T12:09:08.934Z,17.56
2018-09-04T12:11:48.091Z,17.57
2018-09-04T12:14:23.056Z,17.59
2018-09-04T12:16:57.491Z,17.54
2018-09-04T12:19:46.286Z,17.54
2018-09-04T12:22:20.958Z,17.60
2018-09-04T12:24:55.754Z,17.65
2018-09-04T12:27:30.573Z,17.62
2018-09-04T12:30:05.711Z,17.45
2018-09-04T12:32:40.295Z,17.41
2018-09-04T12:35:15.349Z,17.42
2018-09-04T12:37:49.674Z,17.36
2018-09-04T12:40:24.599Z,17.36
2018-09-04T12:43:00.960Z,17.36
2018-09-04T12:45:41.269Z,17.40
2018-09-04T12:48:25.510Z,17.54
2018-09-04T12:51:01.636Z,17.44
2018-09-04T12:53:36.083Z,17.44
2018-09-04T12:56:10.816Z,17.60
2018-09-04T12:58:45.507Z,17.87
2018-09-04T13:01:19.976Z,18.10
2018-09-04T13:03:54.675Z,18.33
2018-09-04T13:06:31.585Z,18.89
2018-09-04T13:09:07.388Z,19.34
2018-09-04T13:11:42.034Z,19.87
2018-09-04T13:14:16.311Z,20.14
2018-09-04T13:16:50.671Z,20.25
2018-09-04T13:19:25.101Z,20.22
2018-09-04T13:22:00.088Z,20.21
2018-09-04T13:24:35.200Z,20.39
2018-09-04T13:27:09.742Z,20.44
2018-09-04T13:29:44.449Z,20.46
2018-09-04T13:32:19.190Z,20.43
2018-09-04T13:34:53.675Z,20.32
2018-09-04T13:37:28.072Z,20.22
2018-09-04T13:40:03.464Z,20.23
2018-09-04T13:42:38.235Z,20.38
2018-09-04T13:45:13.150Z,20.40
2018-09-04T13:47:47.824Z,20.56
2018-09-04T13:50:22.679Z,20.61
2018-09-04T13:52:57.825Z,20.79
2018-09-04T13:55:32.339Z,21.04
2018-09-04T13:58:06.743Z,21.17
2018-09-04T14:00:41.068Z,21.27
2018-09-04T14:03:15.555Z,21.54
2018-09-04T14:05:49.868Z,21.51
2018-09-04T14:08:24.307Z,21.55
2018-09-04T14:10:59.813Z,21.92
2018-09-04T14:13:34.449Z,22.49
2018-09-04T14:16:10.196Z,23.03
2018-09-04T14:18:44.920Z,23.48
2018-09-04T14:21:19.256Z,23.88
2018-09-04T14:23:54.043Z,24.04
2018-09-04T14:26:28.607Z,24.18
2018-09-04T14:29:06.958Z,24.38
2018-09-04T14:31:38.001Z,24.32
2018-09-04T14:34:12.481Z,23.97
2018-09-04T14:36:47.273Z,23.40
2018-09-04T14:39:22.183Z,22.72
2018-09-04T14:41:56.607Z,22.32
2018-09-04T14:44:31.064Z,21.96
2018-09-04T14:47:05.760Z,22.18
2018-09-04T14:49:40.095Z,22.51
2018-09-04T14:52:14.391Z,22.77
2018-09-04T14:54:48.749Z,22.96
2018-09-04T14:57:23.541Z,23.15
2018-09-04T14:59:58.096Z,23.39
2018-09-04T15:02:32.892Z,23.45
2018-09-04T15:05:11.309Z,23.46
2018-09-04T15:07:45.834Z,23.54
2018-09-04T15:10:20.447Z,23.64
2018-09-04T15:12:55.232Z,23.26
2018-09-04T15:15:30.237Z,23.13
2018-09-04T15:18:05.016Z,23.15
2018-09-04T15:20:39.915Z,23.42
2018-09-04T15:23:14.688Z,23.23
2018-09-04T15:25:49.109Z,22.97
2018-09-04T15:28:33.198Z,22.92
2018-09-04T15:31:15.260Z,23.07
2018-09-04T15:33:50.214Z,23.06
2018-09-04T15:36:25.081Z,23.14
2018-09-04T15:38:59.613Z,23.31
2018-09-04T15:41:34.127Z,23.39
2018-09-04T15:44:10.862Z,23.52
2018-09-04T15:46:45.424Z,23.66
2018-09-04T15:49:25.425Z,23.77
2018-09-04T15:52:25.776Z,23.72
2018-09-04T15:55:01.876Z,23.84
2018-09-04T15:57:36.487Z,23.83
2018-09-04T16:00:10.832Z,23.43
2018-09-04T16:02:45.199Z,23.29
2018-09-04T16:05:20.221Z,23.05
2018-09-04T16:07:54.748Z,22.78
2018-09-04T16:10:29.078Z,22.59
2018-09-04T16:13:03.592Z,22.60
2018-09-04T16:15:38.431Z,22.36
2018-09-04T16:18:12.772Z,22.15
2018-09-04T16:20:47.436Z,21.88
2018-09-04T16:23:21.907Z,21.71
2018-09-04T16:26:06.618Z,21.60
2018-09-04T16:28:41.506Z,21.55
2018-09-04T16:31:15.964Z,21.43
2018-09-04T16:33:50.635Z,21.29
2018-09-04T16:36:25.385Z,21.18
2018-09-04T16:38:59.847Z,21.00
2018-09-04T16:41:34.361Z,20.86
2018-09-04T16:44:08.923Z,20.77
2018-09-04T16:46:49.054Z,20.72
2018-09-04T16:49:25.847Z,20.66
2018-09-04T16:52:14.614Z,20.64
2018-09-04T16:54:49.412Z,20.66
2018-09-04T16:57:24.115Z,20.70
2018-09-04T16:59:59.210Z,20.69
2018-09-04T17:02:34.240Z,20.58
2018-09-04T17:05:09.109Z,20.50
2018-09-04T17:07:44.207Z,20.43
2018-09-04T17:10:19.064Z,20.40
2018-09-04T17:12:53.522Z,20.34
2018-09-04T17:15:28.267Z,20.34
2018-09-04T17:18:03.013Z,20.28
2018-09-04T17:20:37.331Z,20.20
2018-09-04T17:23:11.736Z,20.10
2018-09-04T17:25:46.901Z,20.02
2018-09-04T17:28:21.480Z,19.96
2018-09-04T17:30:56.036Z,19.90
2018-09-04T17:33:30.441Z,19.80
2018-09-04T17:36:04.727Z,19.73
2018-09-04T17:38:39.128Z,19.64
2018-09-04T17:41:13.840Z,19.55
2018-09-04T17:43:50.276Z,19.47
2018-09-04T17:46:24.957Z,19.37
2018-09-04T17:48:59.335Z,19.29
2018-09-04T17:51:33.792Z,19.21
2018-09-04T17:54:14.248Z,19.13
2018-09-04T17:56:48.715Z,18.95
2018-09-04T17:59:24.156Z,18.87
2018-09-04T18:01:58.671Z,18.85
2018-09-04T18:04:33.676Z,18.76
2018-09-04T18:07:08.456Z,18.72
2018-09-04T18:09:43.024Z,18.70
2018-09-04T18:12:17.892Z,18.60
2018-09-04T18:14:52.688Z,18.63
2018-09-04T18:17:27.384Z,18.54
2018-09-04T18:20:02.732Z,18.50
2018-09-04T18:22:37.516Z,18.51
2018-09-04T18:25:11.808Z,18.54
2018-09-04T18:27:46.176Z,18.49
2018-09-04T18:30:20.456Z,18.45
2018-09-04T18:32:55.579Z,18.45
2018-09-04T18:35:30.259Z,18.39
2018-09-04T18:38:05.175Z,18.36
2018-09-04T18:40:40.031Z,18.33
2018-09-04T18:43:14.809Z,18.26
2018-09-04T18:45:57.179Z,18.19
2018-09-04T18:48:31.557Z,18.15
2018-09-04T18:51:06.065Z,18.12
2018-09-04T18:53:41.052Z,18.09
2018-09-04T18:56:15.471Z,18.07
2018-09-04T18:58:50.538Z,18.03
2018-09-04T19:01:25.036Z,17.97
2018-09-04T19:03:59.323Z,17.93
2018-09-04T19:06:33.840Z,17.91
2018-09-04T19:09:08.560Z,17.88
2018-09-04T19:11:43.829Z,17.87
2018-09-04T19:14:18.328Z,17.81
2018-09-04T19:16:53.467Z,17.72
2018-09-04T19:19:28.401Z,17.70
2018-09-04T19:22:03.227Z,17.67
2018-09-04T19:24:37.600Z,17.68
2018-09-04T19:27:12.307Z,17.61
2018-09-04T19:29:46.844Z,17.59
2018-09-04T19:32:21.264Z,17.51
2018-09-04T19:34:55.696Z,17.47
2018-09-04T19:37:30.484Z,17.43
2018-09-04T19:40:05.639Z,17.41
2018-09-04T19:42:41.458Z,17.39
2018-09-04T19:45:15.784Z,17.33
2018-09-04T19:47:50.253Z,17.31
2018-09-04T19:50:24.956Z,17.26
2018-09-04T19:52:59.580Z,17.20
2018-09-04T19:55:34.228Z,17.16
2018-09-04T19:58:08.836Z,17.08
2018-09-04T20:00:43.332Z,17.07
2018-09-04T20:03:18.114Z,17.02
2018-09-04T20:05:52.569Z,16.98
2018-09-04T20:08:27.022Z,16.96
2018-09-04T20:11:01.324Z,16.93
2018-09-04T20:13:36.243Z,16.87
2018-09-04T20:16:10.707Z,16.86
2018-09-04T20:18:45.199Z,16.83
2018-09-04T20:21:19.691Z,16.79
2018-09-04T20:23:54.203Z,16.77
2018-09-04T20:26:28.930Z,16.78
2018-09-04T20:29:03.417Z,16.75
2018-09-04T20:31:38.199Z,16.72
2018-09-04T20:34:12.580Z,16.72
2018-09-04T20:36:47.040Z,16.73
2018-09-04T20:39:21.505Z,16.69
2018-09-04T20:41:56.711Z,16.70
2018-09-04T20:44:31.412Z,16.72
2018-09-04T20:47:06.337Z,16.73
2018-09-04T20:49:41.374Z,16.75
2018-09-04T20:52:15.788Z,16.69
2018-09-04T20:54:50.310Z,16.68
2018-09-04T20:57:41.143Z,16.69
2018-09-04T21:00:26.791Z,16.66
2018-09-04T21:03:12.493Z,16.63
2018-09-04T21:05:58.316Z,16.63
2018-09-04T21:08:47.076Z,16.64
2018-09-04T21:11:21.951Z,16.65
2018-09-04T21:13:56.416Z,16.66
2018-09-04T21:16:31.112Z,16.65
2018-09-04T21:19:05.868Z,16.63
2018-09-04T21:21:40.335Z,16.71
2018-09-04T21:24:14.748Z,16.70
2018-09-04T21:26:50.197Z,16.73
2018-09-04T21:29:25.305Z,16.76
2018-09-04T21:31:59.916Z,16.75
2018-09-04T21:34:34.484Z,16.70
2018-09-04T21:37:09.123Z,16.70
2018-09-04T21:39:43.477Z,16.69
2018-09-04T21:42:18.530Z,16.67
2018-09-04T21:44:53.207Z,16.62
2018-09-04T21:47:27.928Z,16.63
2018-09-04T21:50:02.512Z,16.69
2018-09-04T21:52:37.336Z,16.70
2018-09-04T21:55:11.683Z,16.72
2018-09-04T21:57:46.104Z,16.71
2018-09-04T22:00:25.319Z,16.69
2018-09-04T22:02:59.865Z,16.67
2018-09-04T22:05:34.731Z,16.70
2018-09-04T22:08:09.215Z,16.69
2018-09-04T22:10:44.127Z,16.64
2018-09-04T22:13:19.142Z,16.68
2018-09-04T22:15:53.888Z,16.63
2018-09-04T22:18:28.155Z,16.66
2018-09-04T22:21:02.789Z,16.67
2018-09-04T22:23:38.027Z,16.61
2018-09-04T22:26:12.417Z,16.66
2018-09-04T22:28:47.248Z,16.65
2018-09-04T22:31:22.285Z,16.60
2018-09-04T22:33:56.705Z,16.53
2018-09-04T22:36:31.002Z,16.51
2018-09-04T22:39:06.881Z,16.51
2018-09-04T22:41:41.838Z,16.49
2018-09-04T22:44:16.628Z,16.47
2018-09-04T22:46:51.531Z,16.45
2018-09-04T22:49:26.175Z,16.45
2018-09-04T22:52:01.555Z,16.44
2018-09-04T22:54:36.211Z,16.48
2018-09-04T22:57:10.940Z,16.45
2018-09-04T22:59:45.651Z,16.40
2018-09-04T23:02:20.898Z,16.39
2018-09-04T23:04:55.655Z,16.35
2018-09-04T23:07:30.183Z,16.33
2018-09-04T23:10:04.755Z,16.32
2018-09-04T23:12:39.318Z,16.34
2018-09-04T23:15:13.845Z,16.37
2018-09-04T23:17:48.164Z,16.32
2018-09-04T23:20:25.254Z,16.33
2018-09-04T23:22:59.955Z,16.29
2018-09-04T23:25:35.786Z,16.24
2018-09-04T23:28:12.688Z,16.23
2018-09-04T23:30:48.024Z,16.24
2018-09-04T23:33:22.581Z,16.22
2018-09-04T23:35:57.210Z,16.18
2018-09-04T23:38:31.659Z,16.23
2018-09-04T23:41:07.124Z,16.24
2018-09-04T23:47:19.667Z,16.17
2018-09-04T23:49:54.123Z,16.06
2018-09-04T23:52:28.449Z,16.04
2018-09-04T23:55:03.251Z,15.99
2018-09-04T23:57:37.943Z,15.97
